Orbital elements of YURI-2B
| Launched | 11 February 1986 |
| Flight ended | – |
| Launch site | Tanegashima Space Center, Japan |
| Owner | Japan |
| NORAD ID | 16597 |
| Alternative names |
BS-2B |
| Date fetched |
Epoch osculation |
Inc. [°] |
Ecc. | RA asc node [hr] |
Arg Peri. [°] |
Mean anom [°] |
Mean motion [rev/day] |
Abs. mag |
| Date fetched |
Epoch osculation |
Inc. [°] |
Ecc. | RA asc node [hr] |
Arg Peri. [°] |
Mean anom [°] |
Mean motion [rev/day] |
Abs. mag |
| 2026 May 08 17:57 | 2026 May 05 07:15:16 | 12.3181 | 0.00118 | 22.1728 | 226.9937 | 325.4141 | 0.99293 | – |
| 2026 May 07 17:58 | 2026 May 05 07:15:16 | 12.3181 | 0.00118 | 22.1728 | 226.9937 | 325.4141 | 0.99293 | – |
| 2026 May 06 17:57 | 2026 May 05 07:15:16 | 12.3181 | 0.00118 | 22.1728 | 226.9937 | 325.4141 | 0.99293 | – |
| 2026 May 05 17:57 | 2026 May 05 07:15:16 | 12.3181 | 0.00118 | 22.1728 | 226.9937 | 325.4141 | 0.99293 | – |
| 2026 May 04 17:57 | 2026 Apr 30 07:50:54 | 12.3240 | 0.00118 | 22.1750 | 227.5560 | 325.4141 | 0.99293 | – |
| 2026 May 03 17:57 | 2026 Apr 30 07:50:54 | 12.3240 | 0.00118 | 22.1750 | 227.5560 | 325.4141 | 0.99293 | – |
| 2026 May 02 17:57 | 2026 Apr 30 07:50:54 | 12.3240 | 0.00118 | 22.1750 | 227.5560 | 325.4141 | 0.99293 | – |
| 2026 May 01 17:56 | 2026 Apr 30 07:50:54 | 12.3240 | 0.00118 | 22.1750 | 227.5560 | 325.4141 | 0.99293 | – |
| 2026 Apr 30 17:56 | 2026 Apr 30 07:50:54 | 12.3240 | 0.00118 | 22.1750 | 227.5560 | 325.4141 | 0.99293 | – |
| 2026 Apr 29 17:57 | 2026 Apr 24 04:29:23 | 12.3311 | 0.00117 | 22.1776 | 228.2750 | 325.4141 | 0.99293 | – |
| 2026 Apr 28 17:56 | 2026 Apr 24 04:29:23 | 12.3311 | 0.00117 | 22.1776 | 228.2750 | 325.4141 | 0.99293 | – |
| 2026 Apr 27 17:58 | 2026 Apr 24 04:29:23 | 12.3311 | 0.00117 | 22.1776 | 228.2750 | 325.4141 | 0.99293 | – |
| 2026 Apr 26 17:58 | 2026 Apr 24 04:29:23 | 12.3311 | 0.00117 | 22.1776 | 228.2750 | 325.4141 | 0.99293 | – |
| 2026 Apr 25 17:58 | 2026 Apr 24 04:29:23 | 12.3311 | 0.00117 | 22.1776 | 228.2750 | 325.4141 | 0.99293 | – |
| 2026 Apr 24 17:59 | 2026 Apr 24 04:29:23 | 12.3311 | 0.00117 | 22.1776 | 228.2750 | 325.4141 | 0.99293 | – |
| 2026 Apr 23 17:57 | 2026 Apr 19 13:26:03 | 12.3363 | 0.00116 | 22.1797 | 229.1443 | 325.4141 | 0.99293 | – |
| 2026 Apr 22 17:57 | 2026 Apr 19 13:26:03 | 12.3363 | 0.00116 | 22.1797 | 229.1443 | 325.4141 | 0.99293 | – |
| 2026 Apr 21 17:57 | 2026 Apr 19 13:26:03 | 12.3363 | 0.00116 | 22.1797 | 229.1443 | 325.4141 | 0.99293 | – |
| 2026 Apr 20 17:57 | 2026 Apr 19 13:26:03 | 12.3363 | 0.00116 | 22.1797 | 229.1443 | 325.4141 | 0.99293 | – |
| 2026 Apr 19 17:58 | 2026 Apr 19 13:26:03 | 12.3363 | 0.00116 | 22.1797 | 229.1443 | 325.4141 | 0.99293 | – |
| 2026 Apr 18 17:56 | 2026 Apr 13 01:43:29 | 12.3439 | 0.00116 | 22.1826 | 230.4884 | 325.4141 | 0.99293 | – |
| 2026 Apr 16 17:57 | 2026 Apr 13 01:43:29 | 12.3439 | 0.00116 | 22.1826 | 230.4884 | 325.4141 | 0.99293 | – |
| 2026 Apr 14 17:57 | 2026 Apr 13 01:43:29 | 12.3439 | 0.00116 | 22.1826 | 230.4884 | 325.4141 | 0.99293 | – |
| 2026 Apr 13 17:57 | 2026 Apr 13 01:43:29 | 12.3439 | 0.00116 | 22.1826 | 230.4884 | 325.4141 | 0.99293 | – |
| 2026 Apr 12 17:57 | 2026 Apr 08 02:01:01 | 12.3497 | 0.00117 | 22.1847 | 231.2440 | 325.4141 | 0.99293 | – |
| 2026 Apr 11 17:57 | 2026 Apr 08 02:01:01 | 12.3497 | 0.00117 | 22.1847 | 231.2440 | 325.4141 | 0.99293 | – |